• Join FlightAware (Why Join?)
  • Login
  • US Flag 
03:51PM EDT


 

Airport Tracker/Info


-or-


 

Live Flight TrackerFlight Track Log ✈ AAL2007 ✈ 03-May-2013 ✈ KORD - KAUS

Flight Track Log - Related Links

Times and Time Zones

All times are in EDT time to prevent confusion due to time zone crossing. See the AAL2007 flight status page for this flight to view local times or setup timezone preferences in your user account.

Time Position Orientation Groundspeed Altitude Reporting Facility
EDT Latitude Longitude Course Direction KTS MPH feet Rate Location/Type
06:43PM 42.0167 -87.8667 207° Southwest 160 184 2,300  Level Chicago TRACON
06:44PM 41.9833 -87.8167 132° Southeast 219 252 4,000 2,400 Climbing Chicago TRACON
06:45PM 41.7074 -88.1812 201° Southwest  Level Estimated
06:45PM 41.9167 -87.8333 191° South 267 307 7,100  Level Chicago TRACON
06:46PM 41.6158 -88.2722 197° South  Level Estimated
06:47PM 41.5241 -88.3630 194° South  Level Estimated
06:47PM 41.8028 -87.9206 210° Southwest 277 319 11,800  Level Chicago Center
06:48PM 41.4324 -88.4535 207° Southwest  Level Estimated
06:48PM 41.7297 -87.9672 205° Southwest 290 334 14,100  Level Chicago Center
06:49PM 41.6506 -88.0189 206° Southwest 316 364 15,400 1,140 Climbing Chicago Center
06:50PM 41.5619 -88.0772 206° Southwest 355 409 16,500 1,860 Climbing Chicago Center
06:51PM 41.4503 -88.1503 206° Southwest 383 441 19,300 2,460 Climbing Chicago Center
06:52PM 41.3608 -88.2008 203° Southwest 364 419 21,600 1,740 Climbing Chicago Center
06:53PM 41.2653 -88.2425 198° South 365 420 22,900 1,320 Climbing Chicago Center
06:54PM 41.1675 -88.2878 199° South 374 430 24,400 1,320 Climbing Chicago Center
06:55PM 41.0472 -88.3431 199° South 383 441 25,700 1,200 Climbing Chicago Center
06:56PM 40.9433 -88.3881 198° South 391 450 26,900 960 Climbing Chicago Center
06:57PM 40.8372 -88.4353 199° South 399 459 27,800 720 Climbing Chicago Center
06:58PM 40.7361 -88.5044 207° Southwest 430 495 28,400 480 Climbing Chicago Center
06:59PM 40.6464 -88.6164 223° Southwest 446 513 28,900 420 Climbing Chicago Center
07:00PM 40.5472 -88.7211 219° Southwest 454 522 29,300 1,200 Climbing Chicago Center
07:01PM 40.4481 -88.8247 219° Southwest 445 512 31,400 1,500 Climbing Chicago Center
07:02PM 40.3561 -88.9236 219° Southwest 430 495 32,500 900 Climbing Chicago Center
07:03PM 40.2472 -89.0394 219° Southwest 420 483 33,300 720 Climbing Chicago Center
07:04PM 40.1553 -89.1375 219° Southwest 422 486 34,000 300 Climbing Chicago Center
07:05PM 40.0625 -89.2339 219° Southwest 425 489 34,000  Level Chicago Center
07:06PM 39.9881 -89.3150 220° Southwest 426 490 34,000  Level Kansas City Center
07:07PM 39.8767 -89.4319 219° Southwest 427 491 34,000  Level Kansas City Center
07:08PM 39.7839 -89.5283 219° Southwest 426 490 34,000  Level Kansas City Center
07:09PM 39.6956 -89.6214 219° Southwest 429 494 34,000  Level Kansas City Center
07:10PM 39.6031 -89.7172 219° Southwest 429 494 34,000  Level Kansas City Center
07:11PM 39.5114 -89.8133 219° Southwest 426 490 34,000  Level Kansas City Center
07:12PM 39.3994 -89.9283 218° Southwest 429 494 34,000  Level Kansas City Center
07:14PM 39.3067 -90.0256 219° Southwest 431 496 34,000  Level Kansas City Center
07:15PM 39.2144 -90.1211 219° Southwest 428 493 34,000  Level Kansas City Center
07:16PM 39.1214 -90.2164 218° Southwest 429 494 34,000  Level Kansas City Center
07:17PM 39.0286 -90.3125 219° Southwest 430 495 34,000  Level Kansas City Center
07:18PM 38.9311 -90.4117 218° Southwest 432 497 34,000  Level Kansas City Center
07:19PM 38.8183 -90.5319 220° Southwest 443 510 34,000  Level Kansas City Center
07:20PM 38.7256 -90.6369 221° Southwest 442 509 34,000  Level Kansas City Center
07:21PM 38.6456 -90.7308 223° Southwest 443 510 34,000  Level Kansas City Center
07:22PM 38.5544 -90.8350 222° Southwest 445 512 34,000  Level Kansas City Center
07:23PM 38.4444 -90.9614 222° Southwest 445 512 34,000  Level Kansas City Center
07:24PM 38.3528 -91.0661 222° Southwest 445 512 34,000  Level Kansas City Center
07:25PM 38.2608 -91.1703 222° Southwest 443 510 34,000  Level Kansas City Center
07:26PM 38.1681 -91.2753 222° Southwest 446 513 34,000  Level Kansas City Center
07:27PM 38.0594 -91.3969 221° Southwest 442 509 34,000  Level Kansas City Center
07:28PM 37.9694 -91.4983 222° Southwest 433 498 34,000  Level Kansas City Center
07:29PM 37.8808 -91.5986 222° Southwest 428 493 34,000  Level Kansas City Center
07:30PM 37.7942 -91.6986 222° Southwest 424 488 34,000  Level Kansas City Center
07:31PM 37.7039 -91.7972 221° Southwest 423 487 34,000  Level Kansas City Center
07:32PM 37.6147 -91.8969 222° Southwest 425 489 34,000  Level Kansas City Center
07:33PM 37.5233 -92.0003 222° Southwest 432 497 34,000  Level Kansas City Center
07:34PM 37.4336 -92.1000 221° Southwest 429 494 34,000  Level Kansas City Center
07:35PM 37.3453 -92.1978 221° Southwest 423 487 34,000 -600 Level Kansas City Center
07:36PM 37.2542 -92.2961 221° Southwest 425 489 32,800 -1,500 Descending Kansas City Center
07:37PM 37.1442 -92.4156 221° Southwest 430 495 31,000 -1,320 Descending Kansas City Center
07:38PM 37.0531 -92.5156 221° Southwest 432 497 30,100 -540 Descending Kansas City Center
07:39PM 36.9625 -92.6139 221° Southwest 428 493 30,000 -60 Descending Kansas City Center
07:40PM 36.8717 -92.7119 221° Southwest 428 493 30,000  Level Kansas City Center
07:41PM 36.8211 -92.7697 222° Southwest 444 511 30,000  Level Memphis Center
07:42PM 36.7317 -92.8631 220° Southwest 437 503 30,000  Level Memphis Center
07:43PM 36.6400 -92.9636 221° Southwest 437 503 30,000  Level Memphis Center
07:44PM 36.5592 -93.0461 219° Southwest 431 496 30,000  Level Memphis Center
07:45PM 36.4653 -93.1489 221° Southwest 438 504 30,000  Level Memphis Center
07:46PM 36.3733 -93.2436 220° Southwest 438 504 30,000  Level Memphis Center
07:47PM 36.2728 -93.3533 221° Southwest 443 510 30,000  Level Memphis Center
07:48PM 36.1786 -93.4503 220° Southwest 443 510 30,000  Level Memphis Center
07:49PM 36.0844 -93.5469 220° Southwest 438 504 30,000  Level Memphis Center
07:50PM 35.9925 -93.6433 220° Southwest 438 504 30,000  Level Memphis Center
07:51PM 35.8981 -93.7419 220° Southwest 438 504 30,000  Level Memphis Center
07:52PM 35.8017 -93.8353 218° Southwest 438 504 30,000  Level Memphis Center
07:53PM 35.6972 -93.9153 212° Southwest 438 504 30,000  Level Memphis Center
07:54PM 35.5925 -94.0028 214° Southwest 449 517 30,000  Level Memphis Center
07:55PM 35.4878 -94.0850 213° Southwest 456 525 30,000  Level Memphis Center
07:56PM 35.3853 -94.1669 213° Southwest 451 519 30,000  Level Memphis Center
07:57PM 35.2825 -94.2486 213° Southwest 446 513 30,000  Level Memphis Center
07:58PM 35.1797 -94.3328 214° Southwest 446 513 30,000  Level Memphis Center
07:59PM 35.0375 -94.4467 213° Southwest 443 510 30,000  Level Fort Worth Center
08:00PM 34.9331 -94.5289 213° Southwest 437 503 30,000  Level Fort Worth Center
08:01PM 34.8286 -94.6133 214° Southwest 447 514 30,000  Level Fort Worth Center
08:02PM 34.7261 -94.6925 212° Southwest 447 514 30,000  Level Fort Worth Center
08:03PM 34.6256 -94.7739 214° Southwest 447 514 30,000  Level Fort Worth Center
08:04PM 34.5228 -94.8503 211° Southwest 447 514 30,000  Level Fort Worth Center
08:05PM 34.4200 -94.9289 212° Southwest 447 514 30,000  Level Fort Worth Center
08:06PM 34.3153 -95.0097 213° Southwest 452 520 30,000  Level Fort Worth Center
08:07PM 34.1906 -95.0358 190° South 447 514 30,000  Level Fort Worth Center
08:08PM 34.0544 -95.0144 173° South 458 527 30,000  Level Fort Worth Center
08:09PM 33.9269 -95.0028 176° South 463 533 30,000  Level Fort Worth Center
08:10PM 33.8242 -95.0833 213° Southwest 428 493 30,000  Level Fort Worth Center
08:11PM 33.7275 -95.1683 216° Southwest 428 493 30,000  Level Fort Worth Center
08:12PM 33.6289 -95.2531 216° Southwest 434 499 30,000  Level Fort Worth Center
08:13PM 33.5344 -95.3400 218° Southwest 434 499 30,000  Level Fort Worth Center
08:14PM 33.4378 -95.4269 217° Southwest 440 506 30,000  Level Fort Worth Center
08:15PM 33.3389 -95.5164 217° Southwest 440 506 30,000  Level Fort Worth Center
08:16PM 33.2339 -95.6103 217° Southwest 439 505 30,000  Level Fort Worth Center
08:17PM 33.1472 -95.6867 216° Southwest 439 505 30,000  Level Fort Worth Center
08:18PM 33.0419 -95.7803 217° Southwest 439 505 30,000  Level Fort Worth Center
08:19PM 32.9553 -95.8561 216° Southwest 439 505 30,000  Level Fort Worth Center
08:20PM 32.8500 -95.9494 217° Southwest 431 496 30,000  Level Fort Worth Center
08:21PM 32.7631 -96.0250 216° Southwest 431 496 30,000  Level Fort Worth Center
08:22PM 32.6556 -96.1181 216° Southwest 431 496 30,000  Level Fort Worth Center
08:23PM 32.5686 -96.1931 216° Southwest 431 496 30,000  Level Fort Worth Center
08:24PM 32.4608 -96.2833 215° Southwest 431 496 30,000  Level Fort Worth Center
08:25PM 32.3656 -96.3681 217° Southwest 431 496 30,000  Level Fort Worth Center
08:26PM 32.2681 -96.4528 216° Southwest 436 502 30,000  Level Fort Worth Center
08:27PM 32.1706 -96.5347 215° Southwest 436 502 30,000 -600 Level Fort Worth Center
08:28PM 32.0667 -96.6092 211° Southwest 436 502 28,900 -1,380 Descending Fort Worth Center
08:29PM 31.9608 -96.6836 211° Southwest 447 514 27,300 -1,620 Descending Fort Worth Center
08:30PM 31.8567 -96.7556 210° Southwest 447 514 25,700 -1,560 Descending Fort Worth Center
08:31PM 31.7547 -96.8294 212° Southwest 435 501 24,200 -1,380 Descending Fort Worth Center
08:32PM 31.6528 -96.8983 210° Southwest 430 495 23,000 -900 Descending Fort Worth Center
08:33PM 31.6031 -96.9344 212° Southwest 416 479 22,700 -600 Descending Houston Center
08:34PM 31.4892 -97.0144 211° Southwest 406 467 22,000 -360 Descending Houston Center
08:35PM 31.3906 -97.0825 211° Southwest 407 468 22,000 -960 Level Houston Center
08:36PM 31.2919 -97.1500 210° Southwest 407 468 20,100 -1,920 Descending Houston Center
08:37PM 31.1942 -97.2153 210° Southwest 402 463 18,100 -1,800 Descending Houston Center
08:38PM 31.0850 -97.2564 198° South 408 470 16,400 -1,800 Descending Houston Center
08:39PM 30.9800 -97.2983 199° South 405 466 14,400 -1,620 Descending Houston Center
08:40PM 30.8617 -97.3433 198° South 398 458 13,100 -960 Descending Houston Center
08:41PM 30.7628 -97.3819 199° South 377 434 12,500 -1,020 Descending Houston Center
08:42PM 30.6717 -97.4156 198° South 348 400 11,100 -1,380 Descending Houston Center
08:43PM 30.5886 -97.4489 199° South 320 368 9,700 -1,320 Descending Houston Center
08:44PM 30.5053 -97.4814 199° South 313 360 8,400 -840 Descending Houston Center
08:45PM 30.4236 -97.5125 198° South 308 354 8,000 -540 Descending Houston Center
08:46PM 30.3428 -97.5344 193° South 299 344 7,400 -1,140 Descending Houston Center
08:47PM 30.2492 -97.5392 182° South 286 329 5,700 -1,620 Descending Houston Center
08:48PM 30.1697 -97.5458 184° South 284 327 4,100 -1,200 Descending Houston Center
08:50PM 30.0964 -97.5522 184° South 267 307 3,300 -780 Descending Houston Center